M I D A S
Marine Information and Data Acquisition System
Tripno 313 of the Zeeleeuw from 2002-04-16 07:30:55 to 2002-04-16 14:15:32
Back to CruiseResearch ActivitiesStationsMapUnderway DataData graphs

EquipmentUnitsComment
TimeDGPSUTC
LatitudeDGPSDM.mWGS84
LongitudeDGPSDM.mWGS84
TemperatureSBE03/SBE38deg celciusITS90
ConductivitySBE21S/mITS90
SalinitySBE21 Practical Salinity Units
ChlorophylAChelsea fluorimeterg/lCalibrated in Aceton
Missing or incorrect values are displayed as -999
Sea surface data collected by the RV Zeeleeuw from 2002-04-16 07:30:55 to 2002-04-16 14:15:32
Time Latitude Longitude Temperature Conductivity Salinity ChlorophylA
2002-04-16 07:31:58 51°13.686 2°55.904 15.306465 0.262167 1.415314  
2002-04-16 07:32:58 51°13.691 2°55.86 15.32595 0.262167 1.41542  
2002-04-16 07:33:58 51°13.689 2°55.79 15.316555 0.262167 1.415591  
2002-04-16 07:34:58 51°13.687 2°55.754 15.271636 0.262068 1.41507  
2002-04-16 07:35:58 51°13.696 2°55.767 15.344262 0.262068 1.415027  
2002-04-16 07:36:58 51°13.723 2°55.747 15.292302 0.262068 1.415134  
2002-04-16 07:37:58 51°13.819 2°55.655 10.056294 2.990512 24.313738  
2002-04-16 07:38:58 51°13.911 2°55.59 9.736763 2.737538 23.778036  
2002-04-16 07:39:58 51°13.996 2°55.527 9.652839 2.836906 25.053001  
2002-04-16 07:40:58 51°14.109 2°55.436 9.614634 2.887047 25.621247  
2002-04-16 07:41:59 51°14.241 2°55.288 9.510614 2.940195 26.195627  
2002-04-16 07:42:59 51°14.348 2°55.068 9.483389 3.005362 26.911123  
2002-04-16 07:43:58 51°14.378 2°54.792 10.31049 3.034394 27.233157  
2002-04-16 07:44:58 51°14.366 2°54.47 10.542866 3.089159 27.830432  
2002-04-16 07:45:58 51°14.282 2°54.15 10.345863 3.173067 28.715208  
2002-04-16 07:46:58 51°14.175 2°53.824 10.431604 3.199504 28.988486  
2002-04-16 07:47:58 51°14.065 2°53.489 10.545145 3.20371 29.03262  
2002-04-16 07:48:58 51°13.949 2°53.152 10.36107 3.204511 29.043284  
2002-04-16 07:49:58 51°13.831 2°52.811 10.432209 3.207215 29.071715  
2002-04-16 07:50:58 51°13.711 2°52.467 10.264728 3.202809 29.033449  
2002-04-16 07:51:58 51°13.593 2°52.122 9.902361 3.201908 29.032963  
2002-04-16 07:52:58 51°13.475 2°51.776 10.042375 3.208417 29.091017  
2002-04-16 07:53:58 51°13.358 2°51.427 10.199065 3.206414 29.075537  
2002-04-16 07:54:58 51°13.239 2°51.078 10.761813 3.204912 29.065738  
2002-04-16 07:55:58 51°13.12 2°50.728 10.770435 3.201007 29.033794  
2002-04-16 07:56:58 51°13.002 2°50.38 10.430206 3.201507 29.031577  
2002-04-16 07:57:58 51°12.885 2°50.034 10.860436 3.233352 29.318062  
2002-04-16 07:58:58 51°12.768 2°49.688 10.371238 3.240963 29.39379  
2002-04-16 07:59:58 51°12.656 2°49.333 10.373476 3.243767 29.415947  
2002-04-16 08:00:58 51°12.545 2°48.977 10.270473 3.24547 29.437035  
2002-04-16 08:01:58 51°12.435 2°48.62 10.584576 3.261194 29.610376  
2002-04-16 08:02:58 51°12.324 2°48.263 10.49736 3.250978 29.506374  
2002-04-16 08:03:58 51°12.214 2°47.909 10.114002 3.250778 29.507036  
2002-04-16 08:04:58 51°12.104 2°47.553 10.689035 3.253783 29.541243  
2002-04-16 08:05:58 51°11.994 2°47.195 10.194155 3.261094 29.613395  
2002-04-16 08:06:58 51°11.885 2°46.836 10.039938 3.265801 29.661396  
2002-04-16 08:07:58 51°11.775 2°46.478 10.388771 3.260693 29.610038  
2002-04-16 08:08:58 51°11.667 2°46.119 10.19986 3.259792 29.597623  
2002-04-16 08:09:58 51°11.558 2°45.761 10.160056 3.261094 29.610711  
2002-04-16 08:10:58 51°11.448 2°45.403 10.240387 3.263697 29.637561  
2002-04-16 08:11:58 51°11.34 2°45.044 10.318611 3.267103 29.66911  
2002-04-16 08:12:58 51°11.231 2°44.684 10.545936 3.268805 29.685558  
2002-04-16 08:13:58 51°11.122 2°44.323 10.242536 3.2654 29.65132  
2002-04-16 08:14:58 51°11.015 2°43.963 10.47059 3.268304 29.681867  
2002-04-16 08:15:58 51°10.907 2°43.604 10.364009 3.276016 29.75673  
2002-04-16 08:16:58 51°10.799 2°43.247 10.442738 3.274313 29.736238  
2002-04-16 08:17:58 51°10.695 2°42.893 10.065619 3.279722 29.785908  
2002-04-16 08:18:58 51°10.588 2°42.544 10.151634 3.28493 29.832887  
2002-04-16 08:19:58 51°10.485 2°42.195 10.426804 3.28533 29.832188  
2002-04-16 08:20:58 51°10.381 2°41.849 10.58425 3.286332 29.836855  
2002-04-16 08:21:58 51°10.277 2°41.504 10.20519 3.287433 29.843204  
2002-04-16 08:22:58 51°10.173 2°41.16 10.05367 3.288435 29.850572  
2002-04-16 08:23:58 51°10.071 2°40.815 10.128374 3.29174 29.884478  
2002-04-16 08:24:58 51°9.968 2°40.47 10.315064 3.295446 29.924451  
2002-04-16 08:25:58 51°9.864 2°40.128 10.043266 3.29815 29.954363  
2002-04-16 08:26:58 51°9.762 2°39.783 10.351928 3.300253 29.976201  
2002-04-16 08:27:58 51°9.66 2°39.44 10.152851 3.29835 29.956378  
2002-04-16 08:28:58 51°9.56 2°39.095 10.067306 3.294144 29.920837  
2002-04-16 08:29:58 51°9.473 2°38.739 10.066088 3.289336 29.87789  
2002-04-16 08:30:58 51°9.387 2°38.381 10.310163 3.284629 29.829865  
2002-04-16 08:31:58 51°9.302 2°38.023 10.275424 3.283627 29.808992  
2002-04-16 08:32:58 51°9.217 2°37.665 10.546308 3.280422 29.773405  
2002-04-16 08:33:58 51°9.132 2°37.308 10.216176 3.275815 29.723069  
2002-04-16 08:34:58 51°9.05 2°36.949 10.611299 3.270407 29.662025  
2002-04-16 08:35:58 51°8.967 2°36.591 10.478878 3.266301 29.608067  
2002-04-16 08:36:58 51°8.889 2°36.231 9.961613 3.269405 29.620477  
2002-04-16 08:37:58 51°8.814 2°35.866 10.766448 3.274212 29.658654  
2002-04-16 08:38:58 51°8.733 2°35.495 10.422843 3.277417 29.687449  
2002-04-16 08:39:58 51°8.649 2°35.117 10.348056 3.281724 29.73065  
2002-04-16 08:40:58 51°8.565 2°34.738 10.047437 3.282425 29.735669  
2002-04-16 08:41:58 51°8.481 2°34.361 10.735661 3.302756 29.932968  
2002-04-16 08:42:58 51°8.368 2°34.006 10.655426 3.319583 30.100594  
2002-04-16 08:43:58 51°8.202 2°33.713 10.620823 3.326193 30.169057  
2002-04-16 08:44:58 51°8.061 2°33.497 10.245013 3.334206 30.244136  
2002-04-16 08:45:58 51°7.967 2°33.393 9.938285 3.341217 30.31599  
2002-04-16 08:46:58 51°7.893 2°33.329 10.482696 3.341818 30.319295  
2002-04-16 08:47:58 51°7.842 2°33.246 10.290975 3.346326 30.359136  
2002-04-16 08:48:58 51°7.813 2°33.157 10.638615 3.351434 30.407759  
2002-04-16 08:49:58 51°7.803 2°33.078 10.255478 3.353437 30.426532  
2002-04-16 08:50:58 51°7.802 2°32.992 10.294617 3.355841 30.456895  
2002-04-16 08:51:58 51°7.817 2°32.903 10.332845 3.357544 30.474714  
2002-04-16 08:52:58 51°7.841 2°32.813 10.217205 3.358946 30.490199  
2002-04-16 08:53:58 51°7.862 2°32.73 10.291302 3.359047 30.491207  
2002-04-16 08:54:58 51°7.871 2°32.659 10.288734 3.358345 30.482776  
2002-04-16 08:55:58 51°7.863 2°32.589 10.366854 3.356643 30.468396  
2002-04-16 08:56:58 51°7.842 2°32.529 10.523141 3.35534 30.45117  
2002-04-16 08:57:58 51°7.818 2°32.479 10.560074 3.35484 30.443383  
2002-04-16 08:58:58 51°7.794 2°32.438 9.872151 3.354239 30.438025  
2002-04-16 08:59:58 51°7.77 2°32.402 10.480973 3.353738 30.433675  
2002-04-16 09:00:58 51°7.748 2°32.37 10.637035 3.353137 30.426257  
2002-04-16 09:01:58 51°7.726 2°32.338 10.296391 3.353237 30.426577  
2002-04-16 09:02:58 51°7.703 2°32.307 10.525793 3.353337 30.425524  
2002-04-16 09:03:58 51°7.68 2°32.275 10.336858 3.352836 30.419801  
2002-04-16 09:04:58 51°7.656 2°32.242 10.334805 3.354739 30.438253  
2002-04-16 09:05:58 51°7.631 2°32.208 10.647021 3.35504 30.440588  
2002-04-16 09:06:58 51°7.608 2°32.174 10.491774 3.35514 30.439535  
2002-04-16 09:07:58 51°7.585 2°32.138 10.68212 3.357243 30.459313  
2002-04-16 09:08:58 51°7.563 2°32.102 10.412684 3.358646 30.476167  
2002-04-16 09:09:58 51°7.541 2°32.065 10.335645 3.358746 30.479238  
2002-04-16 09:10:58 51°7.519 2°32.029 10.455082 3.358946 30.478501  
2002-04-16 09:11:58 51°7.498 2°31.993 10.491495 3.360449 30.494302  
2002-04-16 09:12:58 51°7.478 2°31.953 10.338631 3.36095 30.498651  
2002-04-16 09:13:58 51°7.461 2°31.899 10.491774 3.36105 30.500347  
2002-04-16 09:14:58 51°7.447 2°31.837 10.335458 3.360649 30.494252  
2002-04-16 09:15:58 51°7.441 2°31.775 10.563794 3.362152 30.512119  
2002-04-16 09:16:58 51°7.44 2°31.719 10.524072 3.361651 30.506393  
2002-04-16 09:17:58 51°7.449 2°31.672 10.370865 3.36135 30.506124  
2002-04-16 09:18:58 51°7.465 2°31.645 10.141339 3.358846 30.480933  
2002-04-16 09:19:58 51°7.489 2°31.661 10.290695 3.357644 30.46953  
2002-04-16 09:20:58 51°7.517 2°31.696 10.37231 3.354739 30.44375  
2002-04-16 09:21:58 51°7.537 2°31.726 10.101359 3.351234 30.405744  
2002-04-16 09:22:58 51°7.546 2°31.758 10.52342 3.34883 30.383629  
2002-04-16 09:23:58 51°7.544 2°31.794 10.525049 3.347528 30.371221  
2002-04-16 09:24:58 51°7.533 2°31.833 10.36788 3.347127 30.365822  
2002-04-16 09:25:58 51°7.513 2°31.873 10.330839 3.346326 30.357765  
2002-04-16 09:26:58 51°7.483 2°31.905 10.447257 3.346726 30.360423  
2002-04-16 09:27:58 51°7.442 2°31.935 10.369512 3.347628 30.370857  
2002-04-16 09:28:58 51°7.359 2°31.868 10.482743 3.350633 30.395585  
2002-04-16 09:29:58 51°7.375 2°31.732 10.220337 3.356642 30.454644  
2002-04-16 09:30:58 51°7.416 2°31.698 10.077941 3.358445 30.478279  
2002-04-16 09:31:58 51°7.436 2°31.683 10.291629 3.355541 30.449748  
2002-04-16 09:32:58 51°7.466 2°31.679 10.368859 3.353537 30.428913  
2002-04-16 09:33:58 51°7.554 2°31.706 9.556719 3.350332 30.392564  
2002-04-16 09:34:58 51°7.684 2°31.834 9.553319 3.34322 30.319021  
2002-04-16 09:35:58 51°7.86 2°31.982 9.558372 3.344823 30.337866  
2002-04-16 09:36:58 51°8.038 2°32.131 9.52956 3.346526 30.351558  
2002-04-16 09:37:58 51°8.199 2°32.312 9.534237 3.338713 30.262117  
2002-04-16 09:38:58 51°8.364 2°32.484 9.528757 3.329097 30.164195  
2002-04-16 09:39:58 51°8.528 2°32.653 9.563707 3.326393 30.143845  
2002-04-16 09:40:58 51°8.694 2°32.822 9.556813 3.31147 29.998111  
2002-04-16 09:41:58 51°8.854 2°32.995 9.568995 3.302355 29.914763  
2002-04-16 09:42:58 51°9.013 2°33.171 9.500926 3.297448 29.85542  
2002-04-16 09:43:58 51°9.174 2°33.351 9.487171 3.309567 29.997964  
2002-04-16 09:44:58 51°9.333 2°33.532 9.497286 3.323188 30.142265  
2002-04-16 09:45:58 51°9.489 2°33.727 9.585565 3.332603 30.228028  
2002-04-16 09:46:58 51°9.646 2°33.933 9.500264 3.36115 30.504108  
2002-04-16 09:47:58 51°9.789 2°34.16 9.49757 3.381384 30.71746  
2002-04-16 09:48:58 51°9.935 2°34.387 9.482774 3.375574 30.665874  
2002-04-16 09:49:58 51°10.081 2°34.612 9.512268 3.366259 30.581737  
2002-04-16 09:50:58 51°10.228 2°34.841 9.452842 3.364155 30.566078  
2002-04-16 09:51:58 51°10.37 2°35.069 9.428858 3.367661 30.618689  
2002-04-16 09:52:58 51°10.516 2°35.29 9.429284 3.373471 30.693913  
2002-04-16 09:53:58 51°10.665 2°35.506 9.475163 3.375575 30.711658  
2002-04-16 09:54:58 51°10.818 2°35.713 9.487738 3.375074 30.700356  
2002-04-16 09:55:58 51°10.97 2°35.922 9.491283 3.37287 30.667035  
2002-04-16 09:56:58 51°11.13 2°36.115 9.454308 3.367261 30.609806  
2002-04-16 09:57:58 51°11.298 2°36.291 9.452464 3.363354 30.573898  
2002-04-16 09:58:58 51°11.464 2°36.469 9.456389 3.361551 30.552967  
2002-04-16 09:59:58 51°11.639 2°36.627 9.495727 3.359047 30.522218  
2002-04-16 10:00:58 51°11.81 2°36.793 9.450241 3.357144 30.50374  
2002-04-16 10:01:58 51°11.983 2°36.954 9.490102 3.357144 30.509257  
2002-04-16 10:02:58 51°12.155 2°37.118 9.448112 3.354139 30.476233  
2002-04-16 10:03:58 51°12.327 2°37.278 9.44007 3.350032 30.439694  
2002-04-16 10:04:58 51°12.499 2°37.441 9.471522 3.347528 30.419291  
2002-04-16 10:05:58 51°12.671 2°37.604 9.464192 3.348229 30.43117  
2002-04-16 10:06:58 51°12.844 2°37.767 9.42758 3.349732 30.456638  
2002-04-16 10:07:58 51°13.017 2°37.931 9.429567 3.349732 30.453193  
2002-04-16 10:08:58 51°13.19 2°38.091 9.428527 3.349532 30.451863  
2002-04-16 10:09:58 51°13.363 2°38.255 9.431223 3.350233 30.458239  
2002-04-16 10:10:58 51°13.536 2°38.419 9.437658 3.351535 30.472739  
2002-04-16 10:11:58 51°13.71 2°38.585 9.455443 3.351435 30.460015  
2002-04-16 10:12:58 51°13.899 2°38.692 9.459227 3.349331 30.427129  
2002-04-16 10:13:58 51°14.101 2°38.63 9.448254 3.34883 30.420024  
2002-04-16 10:14:58 51°14.277 2°38.421 9.460598 3.351635 30.456523  
2002-04-16 10:15:58 51°14.367 2°38.092 9.474264 3.364155 30.571605  
2002-04-16 10:16:58 51°14.281 2°37.73 9.490574 3.371067 30.635701  
2002-04-16 10:17:58 51°14.117 2°37.425 9.482727 3.378279 30.72365  
2002-04-16 10:18:58 51°13.957 2°37.109 9.554641 3.379181 30.735521  
2002-04-16 10:19:58 51°13.808 2°36.776 9.486651 3.368562 30.598027  
2002-04-16 10:20:58 51°13.658 2°36.452 9.582922 3.363354 30.546963  
2002-04-16 10:21:58 51°13.509 2°36.123 9.516095 3.360149 30.520899  
2002-04-16 10:22:58 51°13.358 2°35.796 9.512882 3.358846 30.504343  
2002-04-16 10:23:58 51°13.208 2°35.477 9.469961 3.360449 30.525304  
2002-04-16 10:24:58 51°13.059 2°35.155 9.498846 3.36085 30.532788  
2002-04-16 10:25:58 51°12.906 2°34.838 9.495774 3.363554 30.566932  
2002-04-16 10:26:58 51°12.753 2°34.523 9.455822 3.364656 30.578723  
2002-04-16 10:27:58 51°12.599 2°34.211 9.487124 3.368463 30.619843  
2002-04-16 10:28:58 51°12.434 2°33.918 9.444044 3.376075 30.703513  
2002-04-16 10:29:58 51°12.239 2°33.678 9.470623 3.381785 30.761091  
2002-04-16 10:30:58 51°12.047 2°33.44 9.497003 3.38469 30.770908  
2002-04-16 10:31:58 51°11.853 2°33.197 9.514536 3.389899 30.833874  
2002-04-16 10:32:58 51°11.661 2°32.955 9.50447 3.391401 30.838573  
2002-04-16 10:33:58 51°11.469 2°32.717 9.482302 3.395308 30.880063  
2002-04-16 10:34:58 51°11.269 2°32.496 9.470056 3.397912 30.893068  
2002-04-16 10:35:58 51°11.085 2°32.443 9.482774 3.400817 30.935638  
2002-04-16 10:36:58 51°11.045 2°32.546 9.516757 3.397511 30.896705  
2002-04-16 10:37:58 51°11.069 2°32.603 9.470198 3.393805 30.860026  
2002-04-16 10:38:58 51°11.091 2°32.616 9.489676 3.392202 30.841775  
2002-04-16 10:39:58 51°11.104 2°32.62 9.486935 3.393404 30.842049  
2002-04-16 10:40:58 51°11.13 2°32.636 9.480931 3.392202 30.838988  
2002-04-16 10:41:58 51°11.166 2°32.694 9.474832 3.395007 30.87145  
2002-04-16 10:42:58 51°11.193 2°32.757 9.481072 3.395708 30.878521  
2002-04-16 10:43:58 51°11.217 2°32.808 9.482869 3.39661 30.880635  
2002-04-16 10:44:58 51°11.237 2°32.855 9.479891 3.395408 30.868516  
2002-04-16 10:45:58 51°11.254 2°32.898 9.525025 3.394506 30.861519  
2002-04-16 10:46:58 51°11.273 2°32.935 9.487313 3.393004 30.837314  
2002-04-16 10:47:58 51°11.293 2°32.97 9.488495 3.392302 30.831639  
2002-04-16 10:48:58 51°11.313 2°33.011 9.523891 3.391201 30.822623  
2002-04-16 10:49:58 51°11.332 2°33.06 9.48528 3.389898 30.811586  
2002-04-16 10:50:58 51°11.349 2°33.112 9.522852 3.390299 30.817017  
2002-04-16 10:51:58 51°11.369 2°33.155 9.52545 3.388396 30.797138  
2002-04-16 10:52:58 51°11.391 2°33.197 9.484713 3.387895 30.789308  
2002-04-16 10:53:58 51°11.415 2°33.237 9.486084 3.387795 30.788299  
2002-04-16 10:54:58 51°11.438 2°33.274 9.526159 3.386292 30.773853  
2002-04-16 10:55:58 51°11.462 2°33.31 9.604679 3.386893 30.775739  
2002-04-16 10:56:59 51°11.487 2°33.345 9.48996 3.38529 30.76098  
2002-04-16 10:57:58 51°11.511 2°33.375 9.524505 3.38489 30.754165  
2002-04-16 10:58:58 51°11.536 2°33.409 9.489156 3.383087 30.739472  
2002-04-16 10:59:58 51°11.556 2°33.452 9.525639 3.382586 30.733038  
2002-04-16 11:00:58 51°11.574 2°33.498 9.485942 3.381584 30.722253  
2002-04-16 11:01:58 51°11.594 2°33.541 9.564652 3.380583 30.71355  
2002-04-16 11:02:58 51°11.614 2°33.582 9.489156 3.37908 30.697029  
2002-04-16 11:03:58 51°11.635 2°33.622 9.491283 3.378379 30.689966  
2002-04-16 11:04:58 51°11.659 2°33.66 9.528143 3.378479 30.689589  
2002-04-16 11:05:58 51°11.682 2°33.698 9.565643 3.378279 30.686878  
2002-04-16 11:06:58 51°11.702 2°33.745 9.503572 3.376776 30.667592  
2002-04-16 11:07:58 51°11.718 2°33.795 9.51033 3.376175 30.656003  
2002-04-16 11:08:58 51°11.734 2°33.846 9.516048 3.375674 30.644045  
2002-04-16 11:09:58 51°11.757 2°33.886 9.601517 3.375574 30.638197  
2002-04-16 11:10:58 51°11.782 2°33.919 9.523655 3.375073 30.629011  
2002-04-16 11:11:58 51°11.809 2°33.952 9.522663 3.372368 30.603182  
2002-04-16 11:12:58 51°11.835 2°33.99 9.56706 3.371567 30.59029  
2002-04-16 11:13:58 51°11.855 2°34.033 9.575558 3.372068 30.590497  
2002-04-16 11:14:58 51°11.871 2°34.074 9.540283 3.370866 30.575651  
2002-04-16 11:15:58 51°11.884 2°34.114 9.619494 3.371066 30.574908  
2002-04-16 11:16:58 51°11.894 2°34.154 9.5417 3.370064 30.563458  
2002-04-16 11:17:58 51°11.901 2°34.188 9.545951 3.369363 30.558475  
2002-04-16 11:18:58 51°11.906 2°34.22 9.579759 3.368161 30.545013  
2002-04-16 11:19:58 51°11.908 2°34.255 9.5816 3.36766 30.540667  
2002-04-16 11:20:58 51°11.905 2°34.306 9.547321 3.366358 30.524135  
2002-04-16 11:21:58 51°11.969 2°34.375 9.582214 3.364756 30.512153  
2002-04-16 11:22:58 51°12.043 2°34.308 9.531167 3.363654 30.503141  
2002-04-16 11:23:58 51°12.107 2°34.266 9.536552 3.365156 30.523063  
2002-04-16 11:24:58 51°12.227 2°34.294 9.542692 3.367059 30.535313  
2002-04-16 11:25:58 51°12.434 2°34.318 9.530553 3.36766 30.533782  
2002-04-16 11:26:58 51°12.645 2°34.344 9.568193 3.366058 30.534194  
2002-04-16 11:27:58 51°12.853 2°34.366 9.516898 3.369464 30.577409  
2002-04-16 11:28:59 51°13.064 2°34.391 9.535796 3.369964 30.579688  
2002-04-16 11:29:58 51°13.27 2°34.422 9.465706 3.378078 30.683475  
2002-04-16 11:30:58 51°13.482 2°34.426 9.459936 3.383488 30.757402  
2002-04-16 11:31:58 51°13.696 2°34.366 9.547793 3.38469 30.768822  
2002-04-16 11:32:58 51°13.911 2°34.318 9.50499 3.387194 30.78711  
2002-04-16 11:33:58 51°14.123 2°34.265 9.477007 3.40252 30.940931  
2002-04-16 11:34:58 51°14.334 2°34.211 9.548029 3.406427 30.974037  
2002-04-16 11:35:58 51°14.545 2°34.157 9.520017 3.410233 30.98304  
2002-04-16 11:36:58 51°14.753 2°34.096 9.520962 3.410333 30.981953  
2002-04-16 11:37:58 51°14.96 2°34.035 9.487502 3.411735 30.999582  
2002-04-16 11:38:58 51°15.166 2°33.965 9.488258 3.413839 31.045302  
2002-04-16 11:39:58 51°15.37 2°33.887 9.447403 3.417345 31.089097  
2002-04-16 11:40:58 51°15.574 2°33.815 9.479229 3.423456 31.178243  
2002-04-16 11:41:58 51°15.77 2°33.701 9.424031 3.432071 31.249048  
2002-04-16 11:42:58 51°15.956 2°33.548 9.432927 3.437181 31.330407  
2002-04-16 11:43:58 51°16.143 2°33.403 9.446125 3.437882 31.333955  
2002-04-16 11:44:58 51°16.331 2°33.241 9.431034 3.440687 31.348849  
2002-04-16 11:45:58 51°16.539 2°33.126 9.448916 3.439384 31.344897  
2002-04-16 11:46:58 51°16.749 2°33.041 9.479938 3.440987 31.346217  
2002-04-16 11:47:58 51°16.964 2°33.036 9.428148 3.444994 31.381049  
2002-04-16 11:48:58 51°17.172 2°32.989 9.430372 3.447399 31.425955  
2002-04-16 11:49:58 51°17.322 2°32.744 9.42583 3.444794 31.410266  
2002-04-16 11:50:58 51°17.473 2°32.486 9.421476 3.445195 31.415031  
2002-04-16 11:51:58 51°17.594 2°32.19 9.441348 3.447399 31.435199  
2002-04-16 11:52:58 51°17.683 2°31.86 9.455727 3.452408 31.472359  
2002-04-16 11:53:58 51°17.8 2°31.556 9.438415 3.45922 31.533442  
2002-04-16 11:54:58 51°17.928 2°31.263 9.457761 3.461223 31.560851  
2002-04-16 11:55:58 51°18.062 2°30.973 9.464145 3.461524 31.550334  
2002-04-16 11:56:58 51°18.159 2°30.793 9.481876 3.46483 31.576642  
2002-04-16 11:57:58 51°18.239 2°30.688 9.496767 3.466032 31.590231  
2002-04-16 11:58:58 51°18.308 2°30.59 9.504754 3.47615 31.660415  
2002-04-16 11:59:58 51°18.37 2°30.482 9.472467 3.485467 31.766829  
2002-04-16 12:00:58 51°18.427 2°30.423 9.411065 3.484466 31.799794  
2002-04-16 12:01:58 51°18.464 2°30.403 9.463909 3.484867 31.828338  
2002-04-16 12:02:58 51°18.489 2°30.388 9.410544 3.48637 31.859448  
2002-04-16 12:03:58 51°18.506 2°30.362 9.422943 3.488774 31.865796  
2002-04-16 12:04:58 51°18.519 2°30.314 9.49601 3.489675 31.872054  
2002-04-16 12:05:58 51°18.516 2°30.249 9.428952 3.491278 31.887588  
2002-04-16 12:06:58 51°18.495 2°30.173 9.375607 3.490377 31.895052  
2002-04-16 12:07:58 51°18.465 2°30.093 9.411538 3.489976 31.91195  
2002-04-16 12:08:58 51°18.432 2°30.02 9.451849 3.488574 31.894818  
2002-04-16 12:09:58 51°18.397 2°29.957 9.431223 3.489275 31.901214  
2002-04-16 12:10:58 51°18.365 2°29.908 9.457903 3.489876 31.899363  
2002-04-16 12:11:58 51°18.337 2°29.866 9.436286 3.489075 31.896289  
2002-04-16 12:12:58 51°18.312 2°29.831 9.437705 3.489175 31.886466  
2002-04-16 12:13:58 51°18.289 2°29.799 9.395966 3.488574 31.876034  
2002-04-16 12:14:58 51°18.268 2°29.773 9.415135 3.488373 31.879056  
2002-04-16 12:15:58 51°18.249 2°29.749 9.388249 3.487071 31.876674  
2002-04-16 12:16:58 51°18.232 2°29.727 9.432737 3.488173 31.878467  
2002-04-16 12:17:58 51°18.216 2°29.709 9.427959 3.488073 31.875284  
2002-04-16 12:18:58 51°18.2 2°29.691 9.423085 3.48627 31.863484  
2002-04-16 12:19:58 51°18.184 2°29.677 9.383041 3.485268 31.853318  
2002-04-16 12:20:58 51°18.172 2°29.627 9.393835 3.485568 31.854924  
2002-04-16 12:21:58 51°18.177 2°29.528 9.414851 3.485969 31.853938  
2002-04-16 12:22:58 51°18.209 2°29.433 9.513449 3.487171 31.851704  
2002-04-16 12:23:58 51°18.265 2°29.393 9.410686 3.487772 31.863572  
2002-04-16 12:24:58 51°18.326 2°29.411 9.409929 3.489074 31.870288  
2002-04-16 12:25:58 51°18.377 2°29.482 9.462537 3.490477 31.884513  
2002-04-16 12:26:58 51°18.404 2°29.582 9.463341 3.492681 31.899646  
2002-04-16 12:27:58 51°18.412 2°29.691 9.449531 3.494184 31.914164  
2002-04-16 12:28:59 51°18.394 2°29.786 9.399279 3.493382 31.916151  
2002-04-16 12:29:58 51°18.357 2°29.834 9.429236 3.493583 31.925413  
2002-04-16 12:30:58 51°18.318 2°29.849 9.402167 3.492882 31.925528  
2002-04-16 12:31:58 51°18.282 2°29.845 9.402309 3.493883 31.92774  
2002-04-16 12:32:58 51°18.25 2°29.83 9.400368 3.493983 31.922972  
2002-04-16 12:33:58 51°18.219 2°29.811 9.394593 3.492481 31.912062  
2002-04-16 12:34:59 51°18.192 2°29.786 9.394451 3.490577 31.899253  
2002-04-16 12:35:58 51°18.17 2°29.759 9.397007 3.489876 31.895027  
2002-04-16 12:36:58 51°18.146 2°29.721 9.448916 3.488574 31.876034  
2002-04-16 12:37:58 51°18.119 2°29.679 9.404155 3.489475 31.872909  
2002-04-16 12:38:58 51°18.09 2°29.636 9.399989 3.487472 31.862689  
2002-04-16 12:39:58 51°18.06 2°29.594 9.428385 3.48677 31.852689  
2002-04-16 12:40:58 51°18.027 2°29.559 9.470387 3.488373 31.856684  
2002-04-16 12:41:58 51°17.995 2°29.525 9.460929 3.488373 31.847312  
2002-04-16 12:42:58 51°17.966 2°29.49 9.486982 3.488072 31.844265  
2002-04-16 12:43:58 51°17.939 2°29.453 9.463436 3.489174 31.835985  
2002-04-16 12:44:58 51°17.915 2°29.415 9.469063 3.489174 31.834545  
2002-04-16 12:45:59 51°17.899 2°29.383 9.480742 3.488673 31.824433  
2002-04-16 12:46:59 51°17.891 2°29.365 9.461639 3.488974 31.818844  
2002-04-16 12:47:58 51°17.885 2°29.355 9.486698 3.487972 31.822366  
2002-04-16 12:48:58 51°17.879 2°29.347 9.486273 3.487371 31.827793  
2002-04-16 12:49:58 51°17.871 2°29.326 9.441253 3.48697 31.822293  
2002-04-16 12:50:58 51°17.851 2°29.3 9.479796 3.488072 31.838501  
2002-04-16 12:51:58 51°17.797 2°29.322 9.422943 3.48697 31.831654  
2002-04-16 12:52:58 51°17.76 2°29.467 9.554216 3.48677 31.836828  
2002-04-16 12:53:58 51°17.698 2°29.777 9.427438 3.487571 31.820466  
2002-04-16 12:54:58 51°17.595 2°30.109 9.558938 3.482061 31.789098  
2002-04-16 12:55:58 51°17.492 2°30.442 9.627136 3.482461 31.710634  
2002-04-16 12:56:58 51°17.381 2°30.767 9.569987 3.479255 31.647519  
2002-04-16 12:57:59 51°17.267 2°31.1 9.600384 3.472643 31.586459  
2002-04-16 12:58:58 51°17.161 2°31.425 9.631994 3.477151 31.590672  
2002-04-16 12:59:58 51°17.056 2°31.758 9.58311 3.478453 31.59456  
2002-04-16 13:00:58 51°16.95 2°32.09 10.161787 3.469938 31.537819  
2002-04-16 13:01:59 51°16.842 2°32.43 9.542834 3.46543 31.517196  
2002-04-16 13:02:58 51°16.735 2°32.762 9.534048 3.462024 31.488495  
2002-04-16 13:03:59 51°16.625 2°33.107 9.541323 3.458818 31.462522  
2002-04-16 13:04:59 51°16.518 2°33.451 9.599535 3.456915 31.45679  
2002-04-16 13:05:58 51°16.408 2°33.792 9.478472 3.456012 31.38112  
2002-04-16 13:06:58 51°16.292 2°34.146 9.46476 3.446397 31.385295  
2002-04-16 13:07:58 51°16.177 2°34.501 9.4884 3.446497 31.391982  
2002-04-16 13:08:58 51°16.065 2°34.849 9.454592 3.445195 31.38946  
2002-04-16 13:09:58 51°15.968 2°35.202 9.479323 3.442891 31.366875  
2002-04-16 13:10:59 51°15.89 2°35.574 9.572347 3.443191 31.339447  
2002-04-16 13:11:58 51°15.805 2°35.917 9.668256 3.437379 31.177991  
2002-04-16 13:12:59 51°15.721 2°36.271 9.645907 3.428864 31.079031  
2002-04-16 13:13:58 51°15.639 2°36.617 9.54359 3.422052 31.046854  
2002-04-16 13:14:58 51°15.555 2°36.974 9.552091 3.41434 31.030033  
2002-04-16 13:15:58 51°15.466 2°37.335 9.56621 3.412737 31.012477  
2002-04-16 13:16:58 51°15.384 2°37.707 9.516757 3.415641 30.990016  
2002-04-16 13:17:59 51°15.329 2°38.101 9.584479 3.412136 31.000822  
2002-04-16 13:18:58 51°15.314 2°38.496 9.486698 3.410533 30.972792  
2002-04-16 13:19:58 51°15.294 2°38.891 9.492796 3.408029 30.977608  
2002-04-16 13:20:58 51°15.261 2°39.279 9.529986 3.408029 30.979007  
2002-04-16 13:21:58 51°15.234 2°39.669 9.551713 3.410033 30.997807  
2002-04-16 13:22:59 51°15.201 2°40.059 9.50447 3.41434 31.006244  
2002-04-16 13:23:58 51°15.168 2°40.436 9.587642 3.411335 30.996942  
2002-04-16 13:24:58 51°15.131 2°40.819 9.558372 3.409531 30.955721  
2002-04-16 13:25:59 51°15.094 2°41.211 9.52649 3.406025 30.93646  
2002-04-16 13:26:59 51°15.057 2°41.597 9.610954 3.403221 30.909601  
2002-04-16 13:27:58 51°15.023 2°41.979 9.598686 3.402819 30.855453  
2002-04-16 13:28:58 51°14.99 2°42.369 9.592267 3.402419 30.871584  
2002-04-16 13:29:58 51°14.963 2°42.761 9.602225 3.397711 30.813104  
2002-04-16 13:30:59 51°14.935 2°43.161 9.558938 3.390399 30.774929  
2002-04-16 13:31:59 51°14.912 2°43.561 9.581789 3.389797 30.747384  
2002-04-16 13:32:58 51°14.889 2°43.954 9.580703 3.387193 30.719805  
2002-04-16 13:33:58 51°14.865 2°44.354 9.556955 3.388194 30.713269  
2002-04-16 13:34:59 51°14.841 2°44.759 9.546235 3.386992 30.71087  
2002-04-16 13:35:59 51°14.817 2°45.158 9.547557 3.380582 30.654022  
2002-04-16 13:36:58 51°14.808 2°45.552 9.551005 3.378178 30.647119  
2002-04-16 13:37:59 51°14.814 2°45.961 9.559127 3.377276 30.625622  
2002-04-16 13:38:58 51°14.814 2°46.352 9.486793 3.371668 30.622381  
2002-04-16 13:39:58 51°14.814 2°46.748 9.512031 3.373771 30.633186  
2002-04-16 13:40:58 51°14.815 2°47.145 9.548171 3.37928 30.676879  
2002-04-16 13:41:58 51°14.819 2°47.544 9.580137 3.382185 30.707505  
2002-04-16 13:42:58 51°14.815 2°47.947 9.54085 3.372568 30.570028  
2002-04-16 13:43:58 51°14.808 2°48.35 9.568145 3.351033 30.359879  
2002-04-16 13:44:58 51°14.804 2°48.752 9.598874 3.338412 30.222973  
2002-04-16 13:45:59 51°14.8 2°49.157 10.420467 3.318079 30.006922  
2002-04-16 13:46:58 51°14.796 2°49.548 10.370958 3.30576 29.905746  
2002-04-16 13:47:59 51°14.793 2°49.953 10.021561 3.287632 29.759026  
2002-04-16 13:48:58 51°14.788 2°50.348 10.424381 3.27311 29.620176  
2002-04-16 13:49:59 51°14.783 2°50.755 10.213465 3.2665 29.567962  
2002-04-16 13:50:58 51°14.778 2°51.145 10.319451 3.263797 29.564891  
2002-04-16 13:51:58 51°14.772 2°51.539 10.334385 3.262795 29.549506  
2002-04-16 13:52:58 51°14.766 2°51.932 10.166279 3.25929 29.514362  
2002-04-16 13:53:58 51°14.758 2°52.321 10.260244 3.259991 29.51939  
2002-04-16 13:54:58 51°14.752 2°52.712 10.523467 3.258288 29.489667  
2002-04-16 13:55:58 51°14.742 2°53.101 10.44749 3.25929 29.505031  
2002-04-16 13:56:59 51°14.705 2°53.488 10.077566 3.258789 29.501345  
2002-04-16 13:57:59 51°14.647 2°53.859 10.257627 3.255584 29.453266  
2002-04-16 13:58:58 51°14.577 2°54.226 10.283644 3.254582 29.42597  
2002-04-16 13:59:58 51°14.499 2°54.561 10.242022 3.248674 29.384732  
2002-04-16 14:00:58 51°14.417 2°54.874 10.161694 3.242364 29.279283  
2002-04-16 14:01:58 51°14.316 2°55.143 10.368673 3.236455 29.24  
2002-04-16 14:02:58 51°14.229 2°55.301 13.28877 0.127368 0.911366  
2002-04-16 14:03:58 51°14.142 2°55.392 13.355984 0.054125 0.372981  
2002-04-16 14:04:58 51°14.057 2°55.46 13.130078 0.054223 0.373344  
2002-04-16 14:05:58 51°13.974 2°55.524 13.633093 0.055999 0.385578  
2002-04-16 14:06:58 51°13.892 2°55.587 13.558735 0.056098 0.385779  
2002-04-16 14:07:59 51°13.818 2°55.64 14.288485 0.053434 0.3663  
2002-04-16 14:08:58 51°13.769 2°55.687 13.765348 0.05008 0.342009  
2002-04-16 14:09:58 51°13.739 2°55.742 13.961256 0.048797 0.332437  
2002-04-16 14:10:58 51°13.714 2°55.8 14.12183 0.047712 0.324288  
2002-04-16 14:11:59 51°13.698 2°55.859 14.103449 0.046923 0.318235  
2002-04-16 14:12:59 51°13.694 2°55.886 15.173814 0.046528 0.314942  
2002-04-16 14:13:58 51°13.693 2°55.892 14.859402 0.046133 0.311715  
2002-04-16 14:15:01 51°13.69 2°55.897 14.701887 0.045443 0.306417